Terminal Aerodrome Forecast
Issued by NWS

Home | Current Version | Previous Version | Text Only | Print | Product List | Glossary Off
Versions: 1 2 3 4 5 6 7 8 9 10 11 12 13 14 15

083
FTUS43 KMPX 300534
TAFRWF
TAF
KRWF 300534Z 3006/0106 05011KT P6SM OVC100
     FM301300 04015G22KT P6SM SCT040 OVC060
     FM301700 04018G26KT 5SM -RA BR OVC025
     FM302200 04018G26KT 2SM RA BR OVC006=

USA.gov is the U.S. government's official web portal to all federal, state and local government web resources and services.